Nearby METAR Reports

 

KEWR - Newark, New Jersey, USA
Distance from station: NW 15mi, 25km
Updated: Tue, 25-Sep-2018 9:51am EDT
Heavy rain, Mist, Overcast
Heavy rain, Mist, Overcast
 Wind from varies
Wind: varies 5 mph , 7 km/h
Temperature: 61°F , 16°C
Dew Point: 61°F , 16°C
Humidity: 100%
Barometer: 30.33 inHg , 1027.1 hPa
Summary: Heavy rain, Mist
Clouds: Overcast
Visibility: 1 mile , 2 km
Cloud details: Partly cloudy 300 ft
Mostly cloudy 600 ft
Overcast 1500 ft
2018/09/25 13:51 KEWR 251351Z VRB04KT 1SM R04R/4000VP6000FT +RA BR SCT003 BKN006 OVC015 16/16 A3033 RMK AO2 SLP269 CIG 005V008 P0031 T01560156 $
KJFK - Nyc/Jfk Arpt, New York, USA
Distance from station: NE 15mi, 25km
Updated: Tue, 25-Sep-2018 9:51am EDT
Light rain, Overcast
Light rain, Overcast
 Wind from ESE
Wind: ESE 22 mph , 35 km/h, Gust: 31 mph , 50 km/h
Temperature: 68°F , 20°C
Dew Point: 66°F , 19°C
Humidity: 94%
Barometer: 30.33 inHg , 1027.1 hPa
Summary: Light rain
Clouds: Overcast
Visibility: 10 miles , 16 km
Cloud details: Mostly cloudy 1400 ft
Overcast 2500 ft
2018/09/25 13:51 KJFK 251351Z 12019G27KT 10SM -RA BKN014 OVC025 20/19 A3033 RMK AO2 PK WND 12030/1331 RAE18B34 SLP269 P0001 T02000194
 
KLDJ - Linden, New Jersey, USA
Distance from station: WNW 15mi, 25km
Updated: Tue, 25-Sep-2018 9:55am EDT
Rain, Overcast
Rain, Overcast
 Wind from calm
Wind: Calm
Temperature: 63°F , 17°C
Dew Point: 61°F , 16°C
Humidity: 94%
Barometer: 30.32 inHg , 1026.8 hPa
Summary: Rain
Clouds: Overcast
Visibility: 5 miles , 8 km
Cloud details: Overcast 1100 ft
2018/09/25 13:55 KLDJ 251355Z AUTO 00000KT 5SM RA OVC011 17/16 A3032 RMK AO2 P0071 T01700161
KNYC - Nyc/Central Park, New York, USA
Distance from station: N 20mi, 32km
Updated: Tue, 25-Sep-2018 9:51am EDT
Overcast
Overcast
 Wind from calm
Wind: Calm
Temperature: 63°F , 17°C
Dew Point: 61°F , 16°C
Humidity: 94%
Barometer: 30.36 inHg , 1028.1 hPa
Clouds: Overcast
Visibility: 7 miles , 11 km
Cloud details: Overcast 500 ft
2018/09/25 13:51 KNYC 251351Z AUTO 00000KT 7SM OVC005 17/16 A3036 RMK AO2 RAE46 CIG 004V009 SLP270 P0020 T01670161 $
 
KLGA - Nyc/La Guardia, New York, USA
Distance from station: NNE 21mi, 33km
Updated: Tue, 25-Sep-2018 8:51am EDT
Rain, Mist, Overcast
Rain, Mist, Overcast
 Wind from NE
Wind: NE 13 mph , 20 km/h
Temperature: 63°F , 17°C
Dew Point: 61°F , 16°C
Humidity: 94%
Barometer: 30.33 inHg , 1027.1 hPa
Summary: Rain, Mist
Clouds: Overcast
Visibility: 2 1/2 miles , 2 km
Cloud details: Partly cloudy 500 ft
Mostly cloudy 700 ft
Overcast 1200 ft
2018/09/25 12:51 KLGA 251251Z 05011KT 2 1/2SM RA BR SCT005 BKN007 OVC012 17/16 A3033 RMK AO2 SFC VIS 3 SLP271 P0014 T01720156 $
KBLM - Belmar/Farmdale, New Jersey, USA
Distance from station: SSW 24mi, 38km
Updated: Tue, 25-Sep-2018 9:56am EDT
Overcast
Overcast
 Wind from ESE
Wind: ESE 16 mph , 26 km/h, Gust: 25 mph , 41 km/h
Temperature: 72°F , 22°C
Dew Point: 68°F , 20°C
Humidity: 88%
Barometer: 30.31 inHg , 1026.4 hPa
Clouds: Overcast
Visibility: 7 miles , 11 km
Cloud details: Overcast 1000 ft
2018/09/25 13:56 KBLM 251356Z AUTO 12014G22KT 7SM OVC010 22/20 A3031 RMK AO2 SLP267 T02170200
 
KTEB - Teterboro, New Jersey, USA
Distance from station: N 25mi, 41km
Updated: Tue, 25-Sep-2018 9:51am EDT
Rain, Mist, Overcast
Rain, Mist, Overcast
 Wind from N
Wind: N 6 mph , 9 km/h
Temperature: 59°F , 15°C
Dew Point: 59°F , 15°C
Humidity: 100%
Barometer: 30.31 inHg , 1026.4 hPa
Summary: Rain, Mist
Clouds: Overcast
Visibility: 2 miles , 3 km
Cloud details: Mostly cloudy 600 ft
Overcast 1000 ft
2018/09/25 13:51 KTEB 251351Z 35005KT 2SM RA BR BKN006 OVC010 15/15 A3031 RMK AO2 SLP265 P0017 T01500150
KMMU - Morristown Muni, New Jersey, USA
Distance from station: NW 29mi, 47km
Updated: Tue, 25-Sep-2018 9:46am EDT
Heavy rain, Mist, Overcast
Heavy rain, Mist, Overcast
 Wind from NE
Wind: NE 7 mph , 11 km/h
Temperature: 57°F , 14°C
Dew Point: 57°F , 14°C
Humidity: 100%
Barometer: 30.34 inHg , 1027.4 hPa
Summary: Heavy rain, Mist
Clouds: Overcast
Visibility: 1 3/4 miles , 5 km
Cloud details: Overcast 400 ft
2018/09/25 13:46 KMMU 251346Z 05006KT 1 3/4SM +RA BR OVC004 14/14 A3034
 
KCDW - Caldwell, New Jersey, USA
Distance from station: NNW 30mi, 49km
Updated: Tue, 25-Sep-2018 9:55am EDT
Rain, Mist, Overcast
Rain, Mist, Overcast
 Wind from varies
Wind: varies 5 mph , 7 km/h
Temperature: 57°F , 14°C
Dew Point: 57°F , 14°C
Humidity: 100%
Barometer: 30.35 inHg , 1027.8 hPa
Summary: Rain, Mist
Clouds: Overcast
Visibility: 2 miles , 3 km
Cloud details: Mostly cloudy 600 ft
Overcast 1300 ft
2018/09/25 13:55 KCDW 251355Z VRB04KT 2SM RA BR BKN006 OVC013 14/14 A3035 RMK AO2 P0000 T01390139
KFRG - Farmingdale, New York, USA
Distance from station: ENE 35mi, 56km
Updated: Tue, 25-Sep-2018 9:53am EDT
Rain, Mist, Overcast
Rain, Mist, Overcast
 Wind from ESE
Wind: ESE 15 mph , 24 km/h, Gust: 24 mph , 39 km/h
Temperature: 66°F , 19°C
Dew Point: 64°F , 18°C
Humidity: 94%
Barometer: 30.35 inHg , 1027.8 hPa
Summary: Rain, Mist
Clouds: Overcast
Visibility: 1 3/4 miles , 5 km
Cloud details: Overcast 600 ft
2018/09/25 13:53 KFRG 251353Z 12013G21KT 1 3/4SM RA BR OVC006 19/18 A3035 RMK AO2 PK WND 11026/1328 SFC VIS 3 CIG 004V009 SLP276 P0003 T01890178
 
KSMQ - Somerville, New Jersey, USA
Distance from station: WNW 36mi, 58km
Updated: Tue, 25-Sep-2018 9:53am EDT
Light rain, Mist, Overcast
Light rain, Mist, Overcast
 Wind from calm
Wind: Calm
Temperature: 57°F , 14°C
Dew Point: 57°F , 14°C
Humidity: 100%
Barometer: 30.30 inHg , 1026.1 hPa
Summary: Light rain, Mist
Clouds: Overcast
Visibility: 2 1/2 miles , 2 km
Cloud details: Overcast 1300 ft
2018/09/25 13:53 KSMQ 251353Z AUTO 00000KT 2 1/2SM -RA BR OVC013 14/14 A3030 RMK AO2 VIS 2V3 SLP262 P0013 T01440139
KNEL - Lakehurst Nas, New Jersey, USA
Distance from station: SSW 38mi, 61km
Updated: Tue, 25-Sep-2018 9:00am EDT
Mist, Overcast
Mist, Overcast
 Wind from ESE
Wind: ESE 17 mph , 28 km/h, Gust: 24 mph , 39 km/h
Temperature: 70°F , 21°C
Dew Point: 66°F , 19°C
Humidity: 88%
Barometer: 30.29 inHg , 1025.7 hPa
Summary: Mist
Clouds: Overcast
Visibility: 6 miles , 10 km
Cloud details: Overcast 1100 ft
2018/09/25 13:00 KNEL 251300Z 12015G21KT 6SM BR OVC011 21/19 A3029 RMK AO2 RAE1218 SLP254 P0000 T02110194 $
 
KHPN - White Plains, New York, USA
Distance from station: NNE 42mi, 68km
Updated: Tue, 25-Sep-2018 8:56am EDT
Light rain, Mist, Overcast
Light rain, Mist, Overcast
 Wind from E
Wind: E 10 mph , 17 km/h
Temperature: 55°F , 13°C
Dew Point: 55°F , 13°C
Humidity: 100%
Barometer: 30.36 inHg , 1028.1 hPa
Summary: Light rain, Mist
Clouds: Overcast
Visibility: 1 1/2 miles , 2 km
Cloud details: Mostly cloudy 400 ft
Overcast 700 ft
2018/09/25 12:56 KHPN 251256Z 08009KT 1 1/2SM -RA BR BKN004 OVC007 13/13 A3036 RMK AO2 SLP281 P0009 T01330128
KMJX - Toms River, New Jersey, USA
Distance from station: SSW 42mi, 68km
Updated: Tue, 25-Sep-2018 9:56am EDT
Overcast
Overcast
 Wind from SE
Wind: SE 10 mph , 17 km/h, Gust: 22 mph , 35 km/h
Temperature: 72°F , 22°C
Dew Point: 70°F , 21°C
Humidity: 94%
Barometer: 30.30 inHg , 1026.1 hPa
Clouds: Overcast
Visibility: 7 miles , 11 km
Cloud details: Overcast 1000 ft
2018/09/25 13:56 KMJX 251356Z AUTO 14009G19KT 7SM OVC010 22/21 A3030 RMK AO2 CIG 008V013 SLP265 T02220211
 
KWRI - Wrightst/Mcguire, New Jersey, USA
Distance from station: SW 45mi, 73km
Updated: Tue, 25-Sep-2018 9:37am EDT
Partly cloudy
Partly cloudy
 Wind from ESE
Wind: ESE 12 mph , 19 km/h, Gust: 21 mph , 33 km/h
Temperature: 70°F , 21°C
Dew Point: 68°F , 20°C
Humidity: 94%
Barometer: 30.25 inHg , 1024.4 hPa
Clouds: Partly cloudy
Visibility: 10 miles , 16 km
Cloud details: Partly cloudy 1000 ft
2018/09/25 13:37 KWRI 251337Z AUTO 12010G18KT 10SM SCT010 21/20 A3025 RMK AO2 VIS M1/8 RWY36 RAB25E37 SLP243 $
KTTN - Trenton, New Jersey, USA
Distance from station: WSW 46mi, 73km
Updated: Tue, 25-Sep-2018 9:53am EDT
Rain, Mist, Overcast
Rain, Mist, Overcast
 Wind from NE
Wind: NE 7 mph , 11 km/h
Temperature: 63°F , 17°C
Dew Point: 63°F , 17°C
Humidity: 100%
Barometer: 30.28 inHg , 1025.4 hPa
Summary: Rain, Mist
Clouds: Overcast
Visibility: 3 miles , 5 km
Cloud details: Mostly cloudy 1000 ft
Overcast 1500 ft
2018/09/25 13:53 KTTN 251353Z 04006KT 3SM RA BR BKN010 OVC015 17/17 A3028 RMK AO2 CIG 007V013 SLP248 P0005 T01720167